Terminal Aerodrome Forecast
Issued by NWS

Home | Current Version | Previous Version | Text Only | Print | Product List | Glossary On
Versions: 1 2 3 4 5 6 7 8 9 10 11 12 13 14 15 16
049
FTAK31 PAJN 231734
TAFAKT
TAF
PAKT 231734Z 2318/2418 14010KT 5SM -SHSN SCT005 SCT015 OVC025
      TEMPO 2318/2320 3SM -SHSN
     FM232000 12006KT P6SM VCSH SCT025 BKN040
     FM240000 34005KT P6SM SCT040 SCT120
     FM240900 VRB06KT 3SM -SNRA BKN030 OVC050
     FM241500 15010KT P6SM -RA OVC030 WS020/14025KT
      AMD LTD TO CLD VIS AND WIND 2406/2415=

USA.gov is the U.S. government's official web portal to all federal, state and local government web resources and services.